createdAt,value
2023-04-18T00:00:36.222Z,99965.34
2023-04-18T00:01:39.796Z,99961.19
2023-04-18T00:02:44.543Z,99954.34
2023-04-18T00:03:48.502Z,99961.69
2023-04-18T00:04:52.892Z,99956.47
2023-04-18T00:05:57.019Z,99959.44
2023-04-18T00:07:00.306Z,99955.06
2023-04-18T00:08:03.760Z,99963.44
2023-04-18T00:09:07.052Z,99957.16
2023-04-18T00:10:11.412Z,99951.72
2023-04-18T00:11:15.231Z,99956.13
2023-04-18T00:12:19.532Z,99955.50
2023-04-18T00:13:22.692Z,99956.56
2023-04-18T00:14:25.861Z,99956.56
2023-04-18T00:15:30.289Z,99948.41
2023-04-18T00:16:34.172Z,99948.88
2023-04-18T00:17:41.008Z,99954.31
2023-04-18T00:18:44.767Z,99949.13
2023-04-18T00:19:48.346Z,99951.00
2023-04-18T00:20:51.745Z,99945.81
2023-04-18T00:21:55.642Z,99941.44
2023-04-18T00:23:00.936Z,99949.81
2023-04-18T00:24:04.920Z,99941.09
2023-04-18T00:25:09.586Z,99941.09
2023-04-18T00:26:13.658Z,99938.38
2023-04-18T00:27:19.417Z,99944.03
2023-04-18T00:28:23.151Z,99940.47
2023-04-18T00:29:27.184Z,99929.84
2023-04-18T00:30:30.815Z,99938.81
2023-04-18T00:31:34.777Z,99932.31
2023-04-18T00:32:38.700Z,99927.72
2023-04-18T00:33:42.309Z,99929.00
2023-04-18T00:34:46.001Z,99921.09
2023-04-18T00:35:49.851Z,99927.81
2023-04-18T00:36:53.579Z,99926.16
2023-04-18T00:37:58.390Z,99924.50
2023-04-18T00:39:02.060Z,99924.50
2023-04-18T00:40:06.307Z,99921.19
2023-04-18T00:41:09.949Z,99921.66
2023-04-18T00:42:13.334Z,99918.34
2023-04-18T00:43:17.639Z,99920.25
2023-04-18T00:44:21.288Z,99913.38
2023-04-18T00:45:25.069Z,99913.84
2023-04-18T00:46:29.160Z,99916.56
2023-04-18T00:47:33.239Z,99913.84
2023-04-18T00:48:37.112Z,99913.25
2023-04-18T00:49:40.516Z,99909.69
2023-04-18T00:50:44.570Z,99910.16
2023-04-18T00:51:48.292Z,99915.00
2023-04-18T00:52:53.079Z,99911.69
2023-04-18T00:53:57.915Z,99905.44
2023-04-18T00:55:01.198Z,99911.91
2023-04-18T00:56:05.738Z,99911.31
2023-04-18T00:57:09.696Z,99912.22
2023-04-18T00:58:13.384Z,99912.47
2023-04-18T00:59:16.783Z,99911.03
2023-04-18T01:00:20.101Z,99911.25
2023-04-18T01:01:24.183Z,99910.44
2023-04-18T01:02:31.068Z,99908.81
2023-04-18T01:03:35.497Z,99912.56
2023-04-18T01:04:39.371Z,99907.59
2023-04-18T01:05:46.260Z,99907.00
2023-04-18T01:06:50.114Z,99899.25
2023-04-18T01:07:53.745Z,99902.22
2023-04-18T01:08:58.197Z,99900.31
2023-04-18T01:10:01.884Z,99901.41
2023-04-18T01:11:05.575Z,99895.13
2023-04-18T01:12:09.172Z,99895.34
2023-04-18T01:13:19.477Z,99898.28
2023-04-18T01:14:23.209Z,99895.84
2023-04-18T01:15:26.952Z,99889.31
2023-04-18T01:16:30.733Z,99895.59
2023-04-18T01:17:37.264Z,99893.13
2023-04-18T01:18:41.328Z,99893.56
2023-04-18T01:19:47.350Z,99888.59
2023-04-18T01:20:57.890Z,99892.38
2023-04-18T01:22:01.322Z,99893.66
2023-04-18T01:23:05.201Z,99885.75
2023-04-18T01:24:16.160Z,99891.19
2023-04-18T01:25:20.097Z,99886.81
2023-04-18T01:26:23.932Z,99885.28
2023-04-18T01:27:27.168Z,99885.28
2023-04-18T01:28:31.012Z,99879.41
2023-04-18T01:29:34.590Z,99883.75
2023-04-18T01:30:38.341Z,99877.28
2023-04-18T01:31:42.194Z,99881.66
2023-04-18T01:32:46.513Z,99878.47
2023-04-18T01:33:50.027Z,99886.03
2023-04-18T01:34:53.196Z,99873.50
2023-04-18T01:35:57.141Z,99874.34
2023-04-18T01:37:01.393Z,99878.94
2023-04-18T01:38:04.988Z,99879.41
2023-04-18T01:39:10.561Z,99876.22
2023-04-18T01:40:14.408Z,99864.88
2023-04-18T01:41:18.072Z,99871.97
2023-04-18T01:42:21.854Z,99874.69
2023-04-18T01:43:25.554Z,99864.59
2023-04-18T01:44:29.452Z,99859.78
2023-04-18T01:45:33.207Z,99861.53
2023-04-18T01:46:38.497Z,99862.28
2023-04-18T01:47:42.402Z,99859.25
2023-04-18T01:48:48.768Z,99863.06
2023-04-18T01:49:52.455Z,99859.63
2023-04-18T01:50:57.262Z,99858.94
2023-04-18T01:52:01.450Z,99867.31
2023-04-18T01:53:05.559Z,99865.19
2023-04-18T01:54:09.606Z,99852.75
2023-04-18T01:55:13.298Z,99858.50
2023-04-18T01:56:17.316Z,99854.50
2023-04-18T01:57:21.016Z,99857.69
2023-04-18T01:58:27.341Z,99862.19
2023-04-18T01:59:30.825Z,99858.63
2023-04-18T02:00:34.858Z,99851.72
2023-04-18T02:01:38.102Z,99862.28
2023-04-18T02:02:41.826Z,99862.72
2023-04-18T02:03:45.856Z,99857.75
2023-04-18T02:04:49.269Z,99860.63
2023-04-18T02:05:52.709Z,99859.56
2023-04-18T02:06:56.950Z,99863.13
2023-04-18T02:08:00.232Z,99858.53
2023-04-18T02:09:03.986Z,99856.59
2023-04-18T02:10:08.697Z,99855.81
2023-04-18T02:11:12.344Z,99854.72
2023-04-18T02:12:15.503Z,99855.81
2023-04-18T02:13:19.244Z,99849.78
2023-04-18T02:14:22.807Z,99852.94
2023-04-18T02:15:28.197Z,99859.53
2023-04-18T02:16:32.454Z,99857.69
2023-04-18T02:17:36.853Z,99852.28
2023-04-18T02:18:41.258Z,99851.84
2023-04-18T02:19:44.809Z,99853.72
2023-04-18T02:20:49.512Z,99852.88
2023-04-18T02:21:53.091Z,99852.88
2023-04-18T02:22:56.771Z,99859.56
2023-04-18T02:23:59.843Z,99858.75
2023-04-18T02:25:03.228Z,99848.22
2023-04-18T02:26:08.772Z,99849.25
2023-04-18T02:27:12.679Z,99849.72
2023-04-18T02:28:16.092Z,99848.06
2023-04-18T02:29:19.608Z,99853.91
2023-04-18T02:30:23.186Z,99856.41
2023-04-18T02:31:27.155Z,99858.06
2023-04-18T02:32:30.969Z,99855.56
2023-04-18T02:33:34.311Z,99854.38
2023-04-18T02:34:38.591Z,99860.22
2023-04-18T02:35:42.092Z,99854.00
2023-04-18T02:36:45.701Z,99854.00
2023-04-18T02:37:49.810Z,99856.91
2023-04-18T02:38:53.725Z,99852.09
2023-04-18T02:39:57.549Z,99851.88
2023-04-18T02:41:04.537Z,99857.91
2023-04-18T02:42:07.670Z,99852.69
2023-04-18T02:43:11.228Z,99857.28
2023-04-18T02:44:15.125Z,99848.94
2023-04-18T02:45:18.573Z,99849.38
2023-04-18T02:46:22.945Z,99849.38
2023-04-18T02:47:27.232Z,99851.03
2023-04-18T02:48:30.790Z,99848.31
2023-04-18T02:49:33.999Z,99841.84
2023-04-18T02:50:37.854Z,99848.94
2023-04-18T02:51:41.669Z,99852.84
2023-04-18T02:52:45.187Z,99845.13
2023-04-18T02:53:49.036Z,99849.25
2023-04-18T02:54:53.432Z,99850.91
2023-04-18T02:56:02.422Z,99841.75
2023-04-18T02:57:26.704Z,99845.03
2023-04-18T02:58:38.530Z,99845.88
2023-04-18T02:59:58.301Z,99847.91
2023-04-18T03:01:22.432Z,99846.03
2023-04-18T03:02:44.093Z,99844.38
2023-04-18T03:04:18.438Z,99840.38
2023-04-18T03:05:32.282Z,99837.47
2023-04-18T03:06:39.031Z,99849.13
2023-04-18T03:07:43.286Z,99844.16
2023-04-18T03:08:46.842Z,99845.59
2023-04-18T03:09:50.963Z,99843.94
2023-04-18T03:11:06.226Z,99842.06
2023-04-18T03:12:10.493Z,99842.88
2023-04-18T03:13:14.098Z,99844.00
2023-04-18T03:14:17.502Z,99837.97
2023-04-18T03:15:26.469Z,99845.94
2023-04-18T03:16:30.278Z,99845.78
2023-04-18T03:17:34.330Z,99841.84
2023-04-18T03:18:38.430Z,99847.13
2023-04-18T03:19:42.140Z,99851.72
2023-04-18T03:20:49.114Z,99834.03
2023-04-18T03:21:53.929Z,99842.06
2023-04-18T03:22:58.997Z,99840.81
2023-04-18T03:24:05.819Z,99846.66
2023-04-18T03:25:11.739Z,99836.91
2023-04-18T03:26:23.138Z,99840.66
2023-04-18T03:27:28.040Z,99844.41
2023-04-18T03:28:31.614Z,99840.66
2023-04-18T03:29:35.277Z,99835.25
2023-04-18T03:30:38.692Z,99833.13
2023-04-18T03:31:43.573Z,99836.22
2023-04-18T03:32:49.552Z,99832.00
2023-04-18T03:33:53.268Z,99839.72
2023-04-18T03:34:57.983Z,99837.22
2023-04-18T03:36:01.651Z,99833.88
2023-04-18T03:37:05.783Z,99832.00
2023-04-18T03:38:14.684Z,99833.88
2023-04-18T03:39:18.676Z,99824.09
2023-04-18T03:40:23.025Z,99827.19
2023-04-18T03:41:29.448Z,99824.25
2023-04-18T03:42:34.391Z,99831.34
2023-04-18T03:43:37.535Z,99831.34
2023-04-18T03:44:41.717Z,99824.50
2023-04-18T03:45:45.984Z,99824.25
2023-04-18T03:46:50.611Z,99826.75
2023-04-18T03:47:55.156Z,99825.91
2023-04-18T03:49:00.284Z,99825.22
2023-04-18T03:50:04.048Z,99832.09
2023-04-18T03:51:08.042Z,99816.88
2023-04-18T03:52:12.455Z,99824.59
2023-04-18T03:53:18.335Z,99823.50
2023-04-18T03:54:21.481Z,99822.03
2023-04-18T03:55:27.544Z,99830.16
2023-04-18T03:56:31.458Z,99820.94
2023-04-18T03:57:36.652Z,99822.63
2023-04-18T03:58:44.193Z,99823.88
2023-04-18T03:59:48.074Z,99819.44
2023-04-18T04:00:52.642Z,99821.59
2023-04-18T04:01:57.056Z,99809.59
2023-04-18T04:03:00.990Z,99814.50
2023-04-18T04:04:05.877Z,99810.50
2023-04-18T04:05:10.261Z,99818.19
2023-04-18T04:06:13.848Z,99817.38
2023-04-18T04:07:17.047Z,99816.75
2023-04-18T04:08:20.709Z,99808.63
2023-04-18T04:09:24.357Z,99811.94
2023-04-18T04:10:28.067Z,99811.09
2023-04-18T04:11:31.981Z,99803.19
2023-04-18T04:12:36.811Z,99807.56
2023-04-18T04:13:40.577Z,99806.50
2023-04-18T04:14:44.118Z,99808.19
2023-04-18T04:15:47.901Z,99806.50
2023-04-18T04:16:52.827Z,99805.69
2023-04-18T04:17:56.372Z,99800.47
2023-04-18T04:19:00.121Z,99805.69
2023-04-18T04:20:11.571Z,99806.72
2023-04-18T04:21:16.319Z,99806.50
2023-04-18T04:22:25.266Z,99805.22
2023-04-18T04:23:29.256Z,99799.78
2023-04-18T04:24:34.610Z,99802.63
2023-04-18T04:25:39.513Z,99808.91
2023-04-18T04:26:51.543Z,99798.50
2023-04-18T04:28:01.941Z,99801.44
2023-04-18T04:29:08.391Z,99807.09
2023-04-18T04:30:15.140Z,99809.59
2023-04-18T04:31:19.755Z,99809.38
2023-04-18T04:32:23.639Z,99803.47
2023-04-18T04:33:28.985Z,99804.66
2023-04-18T04:34:37.292Z,99799.84
2023-04-18T04:35:44.500Z,99804.97
2023-04-18T04:36:49.350Z,99798.00
2023-04-18T04:37:53.794Z,99800.50
2023-04-18T04:39:05.339Z,99803.09
2023-04-18T04:40:20.719Z,99799.47
2023-04-18T04:41:44.725Z,99793.34
2023-04-18T04:42:50.120Z,99797.50
2023-04-18T04:44:00.456Z,99791.47
2023-04-18T04:45:08.886Z,99799.84
2023-04-18T04:46:15.648Z,99786.06
2023-04-18T04:47:20.319Z,99797.31
2023-04-18T04:48:25.372Z,99786.47
2023-04-18T04:49:30.004Z,99796.03
2023-04-18T04:50:38.579Z,99793.53
2023-04-18T04:51:42.284Z,99802.75
2023-04-18T04:52:45.963Z,99795.66
2023-04-18T04:53:50.206Z,99790.66
2023-04-18T04:54:54.098Z,99792.66
2023-04-18T04:55:59.446Z,99794.16
2023-04-18T04:57:05.391Z,99790.78
2023-04-18T04:58:09.624Z,99795.25
2023-04-18T04:59:25.866Z,99792.69
2023-04-18T05:00:29.774Z,99793.06
2023-04-18T05:01:34.039Z,99795.91
2023-04-18T05:02:38.203Z,99796.28
2023-04-18T05:03:42.457Z,99797.09
2023-04-18T05:04:46.142Z,99796.28
2023-04-18T05:05:49.990Z,99798.75
2023-04-18T05:06:53.752Z,99797.94
2023-04-18T05:07:57.299Z,99799.94
2023-04-18T05:09:01.575Z,99807.50
2023-04-18T05:10:05.702Z,99803.38
2023-04-18T05:11:09.443Z,99799.81
2023-04-18T05:12:13.097Z,99802.31
2023-04-18T05:13:17.218Z,99807.50
2023-04-18T05:14:21.351Z,99811.75
2023-04-18T05:15:25.883Z,99799.09
2023-04-18T05:16:30.033Z,99806.06
2023-04-18T05:17:33.313Z,99809.66
2023-04-18T05:18:40.324Z,99805.63
2023-04-18T05:19:44.831Z,99808.09
2023-04-18T05:20:48.003Z,99814.75
2023-04-18T05:21:51.661Z,99810.09
2023-04-18T05:22:55.361Z,99807.72
2023-04-18T05:23:58.787Z,99814.03
2023-04-18T05:25:02.287Z,99814.13
2023-04-18T05:26:06.481Z,99826.94
2023-04-18T05:27:10.561Z,99823.25
2023-04-18T05:28:14.326Z,99819.53
2023-04-18T05:29:17.748Z,99822.63
2023-04-18T05:30:21.098Z,99829.44
2023-04-18T05:31:24.760Z,99823.75
2023-04-18T05:32:28.718Z,99820.31
2023-04-18T05:33:32.446Z,99819.25
2023-04-18T05:34:38.862Z,99818.16
2023-04-18T05:35:42.241Z,99814.97
2023-04-18T05:36:45.967Z,99814.97
2023-04-18T05:37:49.852Z,99819.63
2023-04-18T05:38:53.789Z,99821.28
2023-04-18T05:39:59.943Z,99823.00
2023-04-18T05:41:04.131Z,99822.16
2023-04-18T05:42:07.860Z,99806.34
2023-04-18T05:43:11.533Z,99817.34
2023-04-18T05:44:16.711Z,99819.25
2023-04-18T05:45:20.380Z,99813.03
2023-04-18T05:46:24.482Z,99818.22
2023-04-18T05:47:29.184Z,99818.84
2023-04-18T05:48:32.731Z,99814.28
2023-04-18T05:49:36.666Z,99818.00
2023-04-18T05:50:40.661Z,99816.72
2023-04-18T05:51:44.038Z,99829.13
2023-04-18T05:52:47.755Z,99818.50
2023-04-18T05:53:51.374Z,99824.38
2023-04-18T05:54:55.218Z,99821.47
2023-04-18T05:55:59.955Z,99820.03
2023-04-18T05:57:04.783Z,99828.38
2023-04-18T05:58:09.025Z,99821.13
2023-04-18T05:59:13.205Z,99823.00
2023-04-18T06:00:18.180Z,99822.16
2023-04-18T06:01:22.538Z,99822.41
2023-04-18T06:02:26.726Z,99823.00
2023-04-18T06:03:30.758Z,99837.13
2023-04-18T06:04:34.999Z,99825.50
2023-04-18T06:05:39.313Z,99828.00
2023-04-18T06:06:43.183Z,99824.25
2023-04-18T06:07:46.681Z,99827.38
2023-04-18T06:08:50.070Z,99823.19
2023-04-18T06:09:54.731Z,99823.44
2023-04-18T06:10:58.575Z,99825.91
2023-04-18T06:12:03.101Z,99826.94
2023-04-18T06:13:06.693Z,99831.72
2023-04-18T06:14:10.025Z,99825.28
2023-04-18T06:15:13.698Z,99836.72
2023-04-18T06:16:17.382Z,99834.22
2023-04-18T06:17:22.323Z,99832.16
2023-04-18T06:18:25.551Z,99830.06
2023-04-18T06:19:29.082Z,99836.22
2023-04-18T06:20:32.956Z,99831.06
2023-04-18T06:21:36.522Z,99839.03
2023-04-18T06:22:40.147Z,99840.41
2023-04-18T06:23:43.781Z,99841.38
2023-04-18T06:24:48.031Z,99834.28
2023-04-18T06:26:56.882Z,99830.91
2023-04-18T06:28:00.722Z,99836.97
2023-04-18T06:29:04.442Z,99824.78
2023-04-18T06:30:09.272Z,99838.88
2023-04-18T06:31:13.213Z,99833.66
2023-04-18T06:32:16.911Z,99832.69
2023-04-18T06:33:20.229Z,99837.59
2023-04-18T06:34:23.992Z,99837.78
2023-04-18T06:35:27.388Z,99839.88
2023-04-18T06:36:31.289Z,99842.22
2023-04-18T06:37:35.407Z,99839.97
2023-04-18T06:38:39.202Z,99837.41
2023-04-18T06:39:43.448Z,99839.53
2023-04-18T06:40:47.466Z,99844.44
2023-04-18T06:41:51.006Z,99841.78
2023-04-18T06:43:04.670Z,99844.00
2023-04-18T06:44:08.235Z,99846.84
2023-04-18T06:45:13.000Z,99843.50
2023-04-18T06:46:17.042Z,99846.25
2023-04-18T06:47:20.872Z,99847.84
2023-04-18T06:48:24.988Z,99848.94
2023-04-18T06:49:28.610Z,99852.81
2023-04-18T06:50:32.108Z,99855.31
2023-04-18T06:51:36.048Z,99853.13
2023-04-18T06:52:43.092Z,99857.25
2023-04-18T06:53:48.178Z,99849.31
2023-04-18T06:54:51.881Z,99861.66
2023-04-18T06:55:55.210Z,99858.38
2023-04-18T06:56:59.046Z,99856.16
2023-04-18T06:58:02.853Z,99846.75
2023-04-18T06:59:06.483Z,99842.78
2023-04-18T07:00:11.033Z,99848.41
2023-04-18T07:01:15.287Z,99846.81
2023-04-18T07:02:18.729Z,99838.25
2023-04-18T07:03:22.597Z,99841.03
2023-04-18T07:04:27.016Z,99846.22
2023-04-18T07:05:30.374Z,99844.63
2023-04-18T07:06:35.089Z,99848.84
2023-04-18T07:07:39.256Z,99855.75
2023-04-18T07:08:42.630Z,99844.34
2023-04-18T07:09:46.189Z,99847.91
2023-04-18T07:10:49.514Z,99850.13
2023-04-18T07:11:53.683Z,99848.78
2023-04-18T07:12:57.115Z,99851.69
2023-04-18T07:14:00.695Z,99849.22
2023-04-18T07:15:05.421Z,99849.63
2023-04-18T07:16:08.786Z,99855.97
2023-04-18T07:17:12.135Z,99863.50
2023-04-18T07:18:23.273Z,99869.72
2023-04-18T07:19:34.234Z,99854.03
2023-04-18T07:20:37.482Z,99853.50
2023-04-18T07:21:43.732Z,99868.63
2023-04-18T07:22:49.008Z,99859.72
2023-04-18T07:23:52.583Z,99868.19
2023-04-18T07:24:56.116Z,99861.53
2023-04-18T07:26:02.480Z,99875.66
2023-04-18T07:27:10.375Z,99871.19
2023-04-18T07:28:13.653Z,99875.16
2023-04-18T07:29:17.060Z,99868.28
2023-04-18T07:30:20.491Z,99872.38
2023-04-18T07:31:26.835Z,99866.03
2023-04-18T07:32:30.748Z,99871.56
2023-04-18T07:33:34.383Z,99873.31
2023-04-18T07:34:38.087Z,99878.84
2023-04-18T07:35:42.000Z,99872.13
2023-04-18T07:36:45.895Z,99873.03
2023-04-18T07:37:49.110Z,99867.38
2023-04-18T07:38:53.117Z,99862.81
2023-04-18T07:39:56.420Z,99865.75
2023-04-18T07:41:00.606Z,99867.72
2023-04-18T07:42:04.837Z,99860.44
2023-04-18T07:43:08.250Z,99854.22
2023-04-18T07:44:11.974Z,99860.00
2023-04-18T07:45:16.040Z,99860.63
2023-04-18T07:46:19.663Z,99869.09
2023-04-18T07:47:23.477Z,99862.59
2023-04-18T07:48:27.920Z,99866.50
2023-04-18T07:49:31.258Z,99861.81
2023-04-18T07:50:34.389Z,99866.94
2023-04-18T07:51:38.561Z,99865.94
2023-04-18T07:52:42.470Z,99861.03
2023-04-18T07:53:46.730Z,99870.91
2023-04-18T07:54:50.141Z,99856.78
2023-04-18T07:55:55.016Z,99863.06
2023-04-18T07:57:00.134Z,99866.88
2023-04-18T07:58:03.275Z,99857.50
2023-04-18T07:59:06.841Z,99862.59
2023-04-18T08:00:10.810Z,99862.28
2023-04-18T08:01:19.466Z,99859.13
2023-04-18T08:02:23.177Z,99853.09
2023-04-18T08:03:28.649Z,99850.00
2023-04-18T08:04:32.843Z,99842.38
2023-04-18T08:05:36.638Z,99854.81
2023-04-18T08:06:40.715Z,99845.88
2023-04-18T08:07:44.932Z,99853.50
2023-04-18T08:08:49.159Z,99857.03
2023-04-18T08:09:52.784Z,99850.16
2023-04-18T08:10:56.516Z,99858.69
2023-04-18T08:12:00.390Z,99856.97
2023-04-18T08:13:03.636Z,99858.22
2023-04-18T08:14:07.218Z,99857.06
2023-04-18T08:15:11.108Z,99854.78
2023-04-18T08:16:16.381Z,99859.28
2023-04-18T08:17:21.074Z,99854.88
2023-04-18T08:18:25.158Z,99849.91
2023-04-18T08:19:29.491Z,99841.81
2023-04-18T08:20:32.977Z,99857.13
2023-04-18T08:21:36.418Z,99843.88
2023-04-18T08:22:53.851Z,99850.47
2023-04-18T08:24:03.641Z,99850.28
2023-04-18T08:25:07.484Z,99850.69
2023-04-18T08:26:11.272Z,99848.34
2023-04-18T08:27:15.004Z,99854.34
2023-04-18T08:28:18.980Z,99853.31
2023-04-18T08:29:22.151Z,99863.56
2023-04-18T08:30:25.954Z,99858.75
2023-04-18T08:31:29.910Z,99857.19
2023-04-18T08:32:34.066Z,99862.41
2023-04-18T08:33:37.198Z,99860.28
2023-04-18T08:34:40.962Z,99857.84
2023-04-18T08:35:44.332Z,99860.94
2023-04-18T08:36:48.153Z,99853.56
2023-04-18T08:37:51.425Z,99860.63
2023-04-18T08:38:55.241Z,99868.91
2023-04-18T08:39:58.893Z,99861.84
2023-04-18T08:41:02.460Z,99851.69
2023-04-18T08:42:07.218Z,99858.00
2023-04-18T08:43:13.286Z,99845.91
2023-04-18T08:44:18.493Z,99854.84
2023-04-18T08:45:22.623Z,99856.44
2023-04-18T08:46:27.359Z,99861.16
2023-04-18T08:47:32.195Z,99860.81
2023-04-18T08:48:35.970Z,99864.84
2023-04-18T08:49:40.676Z,99852.13
2023-04-18T08:50:45.286Z,99853.63
2023-04-18T08:51:48.939Z,99858.34
2023-04-18T08:52:52.809Z,99871.44
2023-04-18T08:53:57.412Z,99851.16
2023-04-18T08:55:03.790Z,99863.53
2023-04-18T08:56:11.631Z,99862.94
2023-04-18T08:57:19.066Z,99854.78
2023-04-18T08:58:28.410Z,99862.88
2023-04-18T08:59:33.422Z,99867.91
2023-04-18T09:00:37.256Z,99860.72
2023-04-18T09:02:07.451Z,99863.09
2023-04-18T09:03:12.107Z,99853.13
2023-04-18T09:04:35.046Z,99859.19
2023-04-18T09:05:39.584Z,99853.22
2023-04-18T09:06:53.740Z,99864.47
2023-04-18T09:07:57.459Z,99867.28
2023-04-18T09:09:02.412Z,99876.50
2023-04-18T09:10:06.666Z,99855.50
2023-04-18T09:11:24.900Z,99862.00
2023-04-18T09:12:29.405Z,99865.47
2023-04-18T09:13:40.053Z,99868.75
2023-04-18T09:14:51.107Z,99862.97
2023-04-18T09:15:57.163Z,99863.66
2023-04-18T09:17:01.004Z,99862.91
2023-04-18T09:18:05.097Z,99866.25
2023-04-18T09:19:19.200Z,99874.66
2023-04-18T09:20:42.070Z,99866.44
2023-04-18T09:21:48.224Z,99869.56
2023-04-18T09:22:58.795Z,99869.44
2023-04-18T09:24:24.491Z,99886.44
2023-04-18T09:25:35.151Z,99859.41
2023-04-18T09:26:40.363Z,99885.25
2023-04-18T09:27:44.187Z,99874.63
2023-04-18T09:28:48.174Z,99871.56
2023-04-18T09:29:52.815Z,99862.78
2023-04-18T09:30:57.976Z,99866.44
2023-04-18T09:32:02.156Z,99865.34
2023-04-18T09:33:12.611Z,99867.00
2023-04-18T09:34:25.427Z,99857.34
2023-04-18T09:35:29.363Z,99861.53
2023-04-18T09:36:33.337Z,99871.28
2023-04-18T09:37:37.039Z,99856.34
2023-04-18T09:38:43.542Z,99856.41
2023-04-18T09:39:47.405Z,99861.09
2023-04-18T09:41:09.963Z,99855.16
2023-04-18T09:42:14.380Z,99866.66
2023-04-18T09:43:20.825Z,99863.06
2023-04-18T09:44:24.830Z,99870.97
2023-04-18T09:45:28.799Z,99862.97
2023-04-18T09:46:32.461Z,99850.38
2023-04-18T09:47:37.439Z,99866.72
2023-04-18T09:48:42.696Z,99857.09
2023-04-18T09:49:46.684Z,99855.38
2023-04-18T09:50:51.426Z,99851.88
2023-04-18T09:51:56.350Z,99854.03
2023-04-18T09:52:59.985Z,99867.31
2023-04-18T09:54:04.103Z,99872.00
2023-04-18T09:55:09.031Z,99862.34
2023-04-18T09:56:26.540Z,99879.19
2023-04-18T09:57:31.090Z,99863.06
2023-04-18T09:58:34.375Z,99857.16
2023-04-18T09:59:52.621Z,99862.03
2023-04-18T10:00:56.788Z,99860.16
2023-04-18T10:02:00.748Z,99845.50
2023-04-18T10:03:10.603Z,99857.59
2023-04-18T10:04:15.245Z,99860.13
2023-04-18T10:05:20.924Z,99850.66
2023-04-18T10:06:25.009Z,99866.13
2023-04-18T10:07:28.939Z,99857.16
2023-04-18T10:08:32.827Z,99851.31
2023-04-18T10:09:37.776Z,99858.28
2023-04-18T10:10:42.192Z,99856.84
2023-04-18T10:11:45.480Z,99851.06
2023-04-18T10:12:51.202Z,99845.03
2023-04-18T10:13:58.004Z,99844.22
2023-04-18T10:15:01.995Z,99849.44
2023-04-18T10:16:05.736Z,99848.75
2023-04-18T10:17:10.031Z,99844.03
2023-04-18T10:18:19.450Z,99838.31
2023-04-18T10:19:30.216Z,99844.19
2023-04-18T10:20:35.662Z,99845.59
2023-04-18T10:21:39.178Z,99851.00
2023-04-18T10:22:42.790Z,99840.44
2023-04-18T10:23:49.768Z,99838.97
2023-04-18T10:24:57.305Z,99837.34
2023-04-18T10:26:04.452Z,99846.94
2023-04-18T10:27:08.623Z,99840.88
2023-04-18T10:28:13.203Z,99842.00
2023-04-18T10:29:19.084Z,99839.31
2023-04-18T10:30:44.849Z,99838.06
2023-04-18T10:31:51.955Z,99836.81
2023-04-18T10:32:56.854Z,99847.78
2023-04-18T10:34:05.795Z,99840.50
2023-04-18T10:35:09.463Z,99832.63
2023-04-18T10:36:13.404Z,99836.91
2023-04-18T10:37:18.730Z,99832.41
2023-04-18T10:38:24.975Z,99826.97
2023-04-18T10:39:30.626Z,99826.78
2023-04-18T10:40:35.095Z,99838.66
2023-04-18T10:41:39.354Z,99834.72
2023-04-18T10:42:49.141Z,99832.84
2023-04-18T10:44:08.980Z,99839.31
2023-04-18T10:45:24.510Z,99833.25
2023-04-18T10:46:32.514Z,99827.66
2023-04-18T10:47:36.627Z,99836.50
2023-04-18T10:48:40.537Z,99837.75
2023-04-18T10:49:53.825Z,99828.56
2023-04-18T10:51:16.025Z,99834.03
2023-04-18T10:52:19.962Z,99832.09
2023-04-18T10:53:23.796Z,99825.97
2023-04-18T10:54:39.686Z,99835.56
2023-04-18T10:55:43.147Z,99842.88
2023-04-18T10:56:56.534Z,99830.94
2023-04-18T10:58:00.567Z,99837.63
2023-04-18T10:59:04.851Z,99842.31
2023-04-18T11:00:14.656Z,99838.28
2023-04-18T11:01:32.132Z,99839.31
2023-04-18T11:02:36.718Z,99839.22
2023-04-18T11:03:40.601Z,99845.50
2023-04-18T11:04:44.042Z,99844.78
2023-04-18T11:05:47.429Z,99842.81
2023-04-18T11:06:53.725Z,99846.63
2023-04-18T11:07:57.856Z,99841.91
2023-04-18T11:09:14.098Z,99843.34
2023-04-18T11:10:20.081Z,99844.91
2023-04-18T11:11:27.854Z,99838.56
2023-04-18T11:12:33.156Z,99845.00
2023-04-18T11:13:39.052Z,99842.63
2023-04-18T11:14:47.632Z,99836.75
2023-04-18T11:15:51.425Z,99843.41
2023-04-18T11:16:55.258Z,99842.25
2023-04-18T11:18:04.564Z,99837.88
2023-04-18T11:19:24.520Z,99830.22
2023-04-18T11:20:28.434Z,99827.41
2023-04-18T11:21:32.122Z,99824.09
2023-04-18T11:22:59.596Z,99822.84
2023-04-18T11:24:03.565Z,99827.00
2023-04-18T11:25:10.558Z,99820.31
2023-04-18T11:26:17.896Z,99823.44
2023-04-18T11:27:26.085Z,99818.81
2023-04-18T11:28:29.693Z,99817.06
2023-04-18T11:29:33.833Z,99820.53
2023-04-18T11:30:41.639Z,99814.34
2023-04-18T11:31:54.019Z,99820.13
2023-04-18T11:32:59.995Z,99822.56
2023-04-18T11:34:03.997Z,99822.13
2023-04-18T11:35:09.537Z,99818.03
2023-04-18T11:36:13.213Z,99818.19
2023-04-18T11:37:16.940Z,99819.38
2023-04-18T11:38:21.334Z,99825.44
2023-04-18T11:39:26.024Z,99810.91
2023-04-18T11:40:30.120Z,99809.81
2023-04-18T11:41:33.615Z,99806.28
2023-04-18T11:42:38.259Z,99811.81
2023-04-18T11:43:45.525Z,99815.09
2023-04-18T11:44:50.393Z,99811.44
2023-04-18T11:45:57.453Z,99807.72
2023-04-18T11:47:00.809Z,99803.84
2023-04-18T11:48:07.139Z,99803.94
2023-04-18T11:49:29.079Z,99806.22
2023-04-18T11:50:36.655Z,99809.00
2023-04-18T11:51:40.246Z,99801.56
2023-04-18T11:52:44.553Z,99804.53
2023-04-18T11:53:48.580Z,99796.38
2023-04-18T11:54:51.942Z,99793.25
2023-04-18T11:55:56.539Z,99796.50
2023-04-18T11:57:00.222Z,99795.34
2023-04-18T11:58:04.016Z,99788.03
2023-04-18T11:59:10.930Z,99794.41
2023-04-18T12:00:15.203Z,99792.16
2023-04-18T12:01:20.308Z,99787.66
2023-04-18T12:02:25.334Z,99794.47
2023-04-18T12:03:30.451Z,99783.31
2023-04-18T12:04:55.129Z,99787.53
2023-04-18T12:06:02.411Z,99789.25
2023-04-18T12:07:06.118Z,99787.72
2023-04-18T12:08:14.263Z,99784.56
2023-04-18T12:09:27.235Z,99783.25
2023-04-18T12:10:31.442Z,99785.69
2023-04-18T12:11:35.495Z,99793.56
2023-04-18T12:12:39.715Z,99778.47
2023-04-18T12:13:43.565Z,99780.22
2023-04-18T12:14:47.106Z,99786.19
2023-04-18T12:15:50.867Z,99781.84
2023-04-18T12:16:54.511Z,99783.03
2023-04-18T12:18:05.977Z,99778.28
2023-04-18T12:19:11.938Z,99783.94
2023-04-18T12:20:16.625Z,99770.53
2023-04-18T12:21:20.243Z,99773.19
2023-04-18T12:22:59.565Z,99775.44
2023-04-18T12:24:19.391Z,99773.00
2023-04-18T12:25:27.735Z,99769.44
2023-04-18T12:26:32.517Z,99770.78
2023-04-18T12:28:01.298Z,99774.41
2023-04-18T12:29:05.662Z,99761.59
2023-04-18T12:30:10.872Z,99763.53
2023-04-18T12:31:14.442Z,99765.41
2023-04-18T12:32:19.704Z,99766.19
2023-04-18T12:33:26.880Z,99764.38
2023-04-18T12:34:33.718Z,99763.72
2023-04-18T12:35:37.770Z,99763.03
2023-04-18T12:36:41.488Z,99759.31
2023-04-18T12:37:45.776Z,99760.22
2023-04-18T12:38:49.725Z,99748.94
2023-04-18T12:39:53.468Z,99755.16
2023-04-18T12:40:56.901Z,99761.25
2023-04-18T12:41:59.921Z,99760.06
2023-04-18T12:43:04.012Z,99759.28
2023-04-18T12:44:08.183Z,99755.44
2023-04-18T12:45:11.956Z,99753.78
2023-04-18T12:46:15.909Z,99757.38
2023-04-18T12:47:19.762Z,99755.22
2023-04-18T12:48:23.621Z,99746.00
2023-04-18T12:49:27.291Z,99752.22
2023-04-18T12:50:30.939Z,99745.50